Terminal Aerodrome Forecast
Issued by NWS Twin Cities, MN

Home | Current Version | Previous Version | Text Only | Print | Product List | Glossary On
Versions: 1 2 3 4 5 6 7 8 9 10 11 12 13 14 15 16 17 18 19
000
FTUS43 KMPX 262148 AAA
TAFEAU
TAF AMD
KEAU 262148Z 2622/2718 16004KT 6SM BR OVC007
     FM270300 34004KT P6SM OVC020
     FM271200 02004KT P6SM SCT020=

USA.gov is the U.S. government's official web portal to all federal, state and local government web resources and services.